Skip Navigation LinksHome page > Weather > Current weather Skip Navigation Links

Current Weather

Central Park, New York

For information only: do not use for flight planning or navigation.
Latest weather
Observation time Friday, March 23, 2018 2:51 AM EDT
Local time Friday, March 23, 2018 3:18 AM EDT
Flight conditions Visual Meteorological Conditions
Wind direction variable
Wind speed 6 mph
Visibility 10 mi.
Sky condition
Ceiling unlimited
Sky clear
Temperature 37°F
Dewpoint 20°F
Altimeter 30.00 in.Hg
Derived measurements
Relative humidity 50%
Wind chill 32°F
Density altitude -1354 ft.
Sea-level pressure 29.98 in.Hg
Fully automated report.
System requires maintenance.
Automated weather observing station with precipitation discriminator.
METAR KNYC 230651Z AUTO VRB05KT 10SM CLR 03/M07 A3000 RMK AO2 SLP152 T00281067 $


Location code

InnerDrive.Weather 4.0.6615.0 Release CLR 4.0.30319.42000
Copyright ©2018 Inner Drive Technology. All rights reserved. Portions Copyright ©1986-2018 David Braverman.

Find weather

Site navigation

Skip Navigation Links

Place info

Page info

PayPal - The safer, easier way to pay online!

Return home.

Copyright ©2018 Inner Drive Technology. Purveyors of fine, hand-crafted computer software. Page printed 2018-03-23T07:18:22 UTC.